Aviation Digital Data Service (ADDS)

Output produced by METARs form (2337 UTC 19 January 2019)
found at http://www.aviationweather.gov/metar/data/
 
METAR text: EPBY 192330Z 25007KT 9999 OVC011 M02/M04 Q1019
Conditions at: EPBY (BYDGOSZCZ , PL) observed 2330 UTC 19 January 2019
Temperature: -2.0°C (28°F)
Dewpoint: -4.0°C (25°F) [RH = 86%]
Pressure (altimeter): 30.09 inches Hg (1019.0 mb)
Winds: from the WSW (250 degrees) at 8 MPH (7 knots; 3.6 m/s)
Visibility: 6 or more miles (10+ km)
Ceiling: 1100 feet AGL
Clouds: overcast cloud deck at 1100 feet AGL
Weather: no significant weather observed at this time

METAR text: EPBY 192300Z 26005KT 9999 OVC011 M01/M04 Q1019
Conditions at: EPBY (BYDGOSZCZ , PL) observed 2300 UTC 19 January 2019
Temperature: -1.0°C (30°F)
Dewpoint: -4.0°C (25°F) [RH = 80%]
Pressure (altimeter): 30.09 inches Hg (1019.0 mb)
Winds: from the W (260 degrees) at 6 MPH (5 knots; 2.6 m/s)
Visibility: 6 or more miles (10+ km)
Ceiling: 1100 feet AGL
Clouds: overcast cloud deck at 1100 feet AGL
Weather: no significant weather observed at this time

Forecast for: EPBY (BYDGOSZCZ , PL)
Text: TAF EPBY 192330Z 2000/2024 VRB03KT 9999 OVC009
Forecast period: 0000 to 1200 UTC 20 January 2019
Forecast type: FROM: standard forecast or significant change
Winds: variable direction winds at 3 MPH (3 knots; 1.5 m/s)
Visibility: 6 or more miles 10+ km)
Ceiling: 900 feet AGL
Clouds: overcast cloud deck at 900 feet AGL
Weather: no significant weather forecast for this period
Text: PROB40 2002/2009 2000 BR BKN004
Forecast period: 0200 to 0900 UTC 20 January 2019
Forecast type: PROBABLE: 40 percent likelihood of the following during this time
Visibility: 1.24 miles (2.00 km)
Ceiling: 400 feet AGL
Clouds: broken clouds at 400 feet AGL
Weather: BR  (mist)
Text: BECMG 2012/2015 27010KT SCT025
Forecast period: 1200 UTC 20 January 2019 to 0000 UTC 21 January 2019
Forecast type: BECOMING: Conditions expected to become as follows by 1500 UTC 20 January 2019
Winds: from the W (270 degrees) at 12 MPH (10 knots; 5.1 m/s)
Visibility: 6 or more miles 10+ km)
Ceiling: at least 12,000 feet AGL
Clouds: scattered clouds at 2500 feet AGL
Weather: no significant weather forecast for this period